ADDS METAR Data INFO
IDs: Format: Raw Decoded Include TAF

Data at: 1806 UTC 24 Jun 2018

METAR for:KGEZ (Shelbyville Muni, IN, US)
Text:KGEZ 241753Z AUTO VRB03KT 10SM SCT040 27/17 A2998 RMK AO2 SLP144 T02720172 10272 20206 52008
Temperature: 27.2°C ( 81°F)
Dewpoint: 17.2°C ( 63°F) [RH = 54%]
Pressure (altimeter):29.98 inches Hg (1015.3 mb) [Sea level pressure: 1014.4 mb]
Winds:variable direction winds at 3 MPH (3 knots; 1.5 m/s)
Visibility:10 or more sm (16+ km)
Ceiling:at least 12,000 feet AGL
Clouds: scattered clouds at 4000 feet AGL
QC Flag:automated observation with no human augmentation